createdAt,value
2023-03-17T00:00:35.845Z,1002.49
2023-03-17T00:01:35.812Z,1002.56
2023-03-17T00:02:35.849Z,1002.59
2023-03-17T00:03:35.815Z,1002.67
2023-03-17T00:06:35.763Z,1002.73
2023-03-17T00:07:35.752Z,1002.73
2023-03-17T00:08:35.745Z,1002.71
2023-03-17T00:09:35.725Z,1002.72
2023-03-17T00:10:35.723Z,1002.69
2023-03-17T00:11:35.716Z,1002.68
2023-03-17T00:13:35.682Z,1002.66
2023-03-17T00:14:35.673Z,1002.73
2023-03-17T00:16:35.676Z,1002.88
2023-03-17T00:17:35.641Z,1002.89
2023-03-17T00:18:35.626Z,1002.93
2023-03-17T00:19:35.617Z,1002.92
2023-03-17T00:20:35.608Z,1002.84
2023-03-17T00:21:35.604Z,1002.88
2023-03-17T00:22:35.590Z,1002.86
2023-03-17T00:23:35.572Z,1002.86
2023-03-17T00:30:35.500Z,1002.84
2023-03-17T00:31:35.522Z,1002.87
2023-03-17T00:32:35.534Z,1002.87
2023-03-17T00:33:35.465Z,1002.89
2023-03-17T00:34:35.453Z,1002.86
2023-03-17T00:35:35.485Z,1002.85
2023-03-17T00:36:35.441Z,1002.83
2023-03-17T00:37:35.422Z,1002.81
2023-03-17T00:38:35.411Z,1002.86
2023-03-17T00:39:35.401Z,1002.86
2023-03-17T00:40:35.388Z,1002.79
2023-03-17T00:41:35.374Z,1002.89
2023-03-17T00:42:35.370Z,1002.82
2023-03-17T00:43:35.352Z,1002.89
2023-03-17T00:46:35.487Z,1002.87
2023-03-17T00:47:35.308Z,1002.85
2023-03-17T00:48:35.317Z,1002.88
2023-03-17T00:49:35.290Z,1002.86
2023-03-17T00:50:35.277Z,1002.84
2023-03-17T00:53:35.243Z,1002.78
2023-03-17T00:54:35.232Z,1002.75
2023-03-17T00:55:35.222Z,1002.76
2023-03-17T00:56:35.215Z,1002.78
2023-03-17T00:57:35.206Z,1002.71
2023-03-17T00:58:35.200Z,1002.71
2023-03-17T00:59:35.181Z,1002.72
2023-03-17T01:02:35.145Z,1002.61
2023-03-17T01:03:35.133Z,1002.59
2023-03-17T01:04:35.153Z,1002.55
2023-03-17T01:05:35.129Z,1002.55
2023-03-17T01:06:35.101Z,1002.50
2023-03-17T01:07:35.097Z,1002.49
2023-03-17T01:08:35.081Z,1002.45
2023-03-17T01:09:35.068Z,1002.39
2023-03-17T01:10:35.063Z,1002.36
2023-03-17T01:11:35.053Z,1002.36
2023-03-17T01:13:35.024Z,1002.29
2023-03-17T01:15:35.001Z,1002.28
2023-03-17T01:17:34.981Z,1002.27
2023-03-17T01:19:34.958Z,1002.26
2023-03-17T01:21:34.936Z,1002.27
2023-03-17T01:22:34.927Z,1002.22
2023-03-17T01:23:34.924Z,1002.20
2023-03-17T01:24:34.906Z,1002.15
2023-03-17T01:25:34.908Z,1002.11
2023-03-17T01:26:34.891Z,1002.13
2023-03-17T01:28:34.884Z,1002.22
2023-03-17T01:29:34.870Z,1002.25
2023-03-17T01:30:34.852Z,1002.25
2023-03-17T01:31:34.865Z,1002.23
2023-03-17T01:32:34.851Z,1002.22
2023-03-17T01:33:34.807Z,1002.24
2023-03-17T01:34:34.796Z,1002.21
2023-03-17T01:35:34.846Z,1002.22
2023-03-17T01:36:34.815Z,1002.19
2023-03-17T01:37:34.763Z,1002.22
2023-03-17T01:38:34.755Z,1002.20
2023-03-17T01:39:34.743Z,1002.19
2023-03-17T01:40:34.734Z,1002.17
2023-03-17T01:41:34.735Z,1002.18
2023-03-17T01:42:34.712Z,1002.14
2023-03-17T01:43:34.701Z,1002.16
2023-03-17T01:44:34.693Z,1002.13
2023-03-17T01:45:34.703Z,1002.07
2023-03-17T01:48:34.648Z,1001.94
2023-03-17T01:50:34.624Z,1001.97
2023-03-17T01:51:34.610Z,1001.94
2023-03-17T01:52:34.645Z,1001.93
2023-03-17T01:53:34.596Z,1001.90
2023-03-17T01:56:34.557Z,1001.82
2023-03-17T01:58:34.550Z,1001.81
2023-03-17T02:00:34.517Z,1001.77
2023-03-17T02:01:34.502Z,1001.77
2023-03-17T02:02:34.494Z,1001.77
2023-03-17T02:03:34.480Z,1001.78
2023-03-17T02:04:34.514Z,1001.79
2023-03-17T02:06:35.843Z,1001.75
2023-03-17T02:07:34.460Z,1001.72
2023-03-17T02:08:34.455Z,1001.68
2023-03-17T02:09:34.429Z,1001.73
2023-03-17T02:12:34.381Z,1001.74
2023-03-17T02:13:34.369Z,1001.73
2023-03-17T02:14:34.360Z,1001.72
2023-03-17T02:15:34.345Z,1001.74
2023-03-17T02:16:34.392Z,1001.75
2023-03-17T02:17:34.324Z,1001.70
2023-03-17T02:18:34.331Z,1001.67
2023-03-17T02:19:34.366Z,1001.68
2023-03-17T02:20:34.298Z,1001.71
2023-03-17T02:21:34.326Z,1001.69
2023-03-17T02:22:34.268Z,1001.69
2023-03-17T02:23:34.289Z,1001.72
2023-03-17T02:24:34.302Z,1001.69
2023-03-17T02:25:34.236Z,1001.72
2023-03-17T02:27:34.222Z,1001.67
2023-03-17T02:28:34.205Z,1001.71
2023-03-17T02:29:34.190Z,1001.68
2023-03-17T02:30:34.273Z,1001.66
2023-03-17T02:31:34.174Z,1001.69
2023-03-17T02:32:34.272Z,1001.68
2023-03-17T02:33:34.151Z,1001.73
2023-03-17T02:34:34.146Z,1001.78
2023-03-17T02:35:34.207Z,1001.79
2023-03-17T02:36:34.125Z,1001.73
2023-03-17T02:37:34.112Z,1001.76
2023-03-17T02:38:34.104Z,1001.71
2023-03-17T02:39:34.086Z,1001.74
2023-03-17T02:40:34.104Z,1001.74
2023-03-17T02:41:34.064Z,1001.76
2023-03-17T02:42:34.056Z,1001.72
2023-03-17T02:43:34.044Z,1001.72
2023-03-17T02:44:34.034Z,1001.69
2023-03-17T02:45:34.021Z,1001.72
2023-03-17T02:46:34.020Z,1001.72
2023-03-17T02:47:34.001Z,1001.71
2023-03-17T02:48:33.993Z,1001.72
2023-03-17T02:49:33.981Z,1001.69
2023-03-17T02:50:33.977Z,1001.68
2023-03-17T02:51:33.965Z,1001.70
2023-03-17T02:52:33.952Z,1001.64
2023-03-17T02:53:33.942Z,1001.66
2023-03-17T02:58:33.883Z,1001.69
2023-03-17T02:59:33.872Z,1001.68
2023-03-17T03:00:33.863Z,1001.66
2023-03-17T03:01:33.935Z,1001.70
2023-03-17T03:02:33.965Z,1001.69
2023-03-17T03:03:33.828Z,1001.68
2023-03-17T03:04:33.831Z,1001.69
2023-03-17T03:05:33.804Z,1001.65
2023-03-17T03:06:33.795Z,1001.65
2023-03-17T03:07:33.783Z,1001.64
2023-03-17T03:08:33.774Z,1001.58
2023-03-17T03:09:33.760Z,1001.60
2023-03-17T03:10:33.749Z,1001.58
2023-03-17T03:11:33.737Z,1001.60
2023-03-17T03:12:33.769Z,1001.64
2023-03-17T03:13:33.716Z,1001.66
2023-03-17T03:14:33.708Z,1001.72
2023-03-17T03:15:33.754Z,1001.66
2023-03-17T03:17:33.683Z,1001.65
2023-03-17T03:19:33.657Z,1001.65
2023-03-17T03:20:33.641Z,1001.67
2023-03-17T03:21:33.628Z,1001.67
2023-03-17T03:22:33.616Z,1001.67
2023-03-17T03:24:33.598Z,1001.70
2023-03-17T03:25:33.588Z,1001.67
2023-03-17T03:26:33.575Z,1001.70
2023-03-17T03:27:33.562Z,1001.65
2023-03-17T03:28:33.584Z,1001.64
2023-03-17T03:29:33.546Z,1001.60
2023-03-17T03:30:33.537Z,1001.59
2023-03-17T03:31:33.521Z,1001.62
2023-03-17T03:32:33.558Z,1001.60
2023-03-17T03:33:33.500Z,1001.64
2023-03-17T03:34:33.493Z,1001.65
2023-03-17T03:35:33.545Z,1001.67
2023-03-17T03:36:33.469Z,1001.65
2023-03-17T03:37:33.457Z,1001.62
2023-03-17T03:38:33.448Z,1001.61
2023-03-17T03:39:33.447Z,1001.65
2023-03-17T03:40:33.428Z,1001.62
2023-03-17T03:44:33.416Z,1001.65
2023-03-17T03:45:33.368Z,1001.65
2023-03-17T03:46:33.361Z,1001.68
2023-03-17T03:47:33.346Z,1001.70
2023-03-17T03:48:33.344Z,1001.69
2023-03-17T03:49:33.326Z,1001.74
2023-03-17T03:50:33.316Z,1001.74
2023-03-17T03:51:33.301Z,1001.67
2023-03-17T03:52:33.297Z,1001.66
2023-03-17T03:53:33.282Z,1001.67
2023-03-17T03:54:33.270Z,1001.67
2023-03-17T03:55:33.255Z,1001.65
2023-03-17T03:56:33.251Z,1001.59
2023-03-17T03:57:33.234Z,1001.55
2023-03-17T03:58:33.223Z,1001.57
2023-03-17T03:59:33.216Z,1001.49
2023-03-17T04:00:33.383Z,1001.54
2023-03-17T04:02:33.232Z,1001.60
2023-03-17T04:03:33.173Z,1001.59
2023-03-17T04:04:33.207Z,1001.63
2023-03-17T04:05:33.153Z,1001.58
2023-03-17T04:06:33.140Z,1001.52
2023-03-17T04:07:33.128Z,1001.50
2023-03-17T04:08:33.121Z,1001.48
2023-03-17T04:09:33.107Z,1001.49
2023-03-17T04:10:33.193Z,1001.57
2023-03-17T04:11:33.089Z,1001.61
2023-03-17T04:12:33.072Z,1001.65
2023-03-17T04:13:33.063Z,1001.66
2023-03-17T04:14:33.049Z,1001.71
2023-03-17T04:15:33.042Z,1001.67
2023-03-17T04:16:33.169Z,1001.68
2023-03-17T04:22:32.965Z,1001.54
2023-03-17T04:24:32.941Z,1001.59
2023-03-17T04:29:32.889Z,1001.53
2023-03-17T04:30:33.255Z,1001.45
2023-03-17T04:38:32.789Z,1001.56
2023-03-17T04:39:32.779Z,1001.56
2023-03-17T04:40:32.992Z,1001.58
2023-03-17T04:41:32.757Z,1001.58
2023-03-17T04:42:32.744Z,1001.53
2023-03-17T04:43:32.733Z,1001.55
2023-03-17T04:44:32.722Z,1001.54
2023-03-17T04:45:32.737Z,1001.52
2023-03-17T04:51:32.647Z,1001.51
2023-03-17T04:52:32.637Z,1001.54
2023-03-17T04:53:32.642Z,1001.57
2023-03-17T04:54:32.616Z,1001.57
2023-03-17T04:55:32.606Z,1001.54
2023-03-17T04:57:32.587Z,1001.65
2023-03-17T04:58:32.569Z,1001.59
2023-03-17T04:59:32.565Z,1001.57
2023-03-17T05:00:32.795Z,1001.52
2023-03-17T05:01:32.539Z,1001.55
2023-03-17T05:02:32.603Z,1001.56
2023-03-17T05:03:32.519Z,1001.55
2023-03-17T05:04:32.597Z,1001.57
2023-03-17T05:05:32.496Z,1001.57
2023-03-17T05:06:32.486Z,1001.60
2023-03-17T05:07:34.125Z,1001.55
2023-03-17T05:08:32.462Z,1001.58
2023-03-17T05:09:32.453Z,1001.58
2023-03-17T05:10:32.857Z,1001.57
2023-03-17T05:11:32.452Z,1001.56
2023-03-17T05:12:32.422Z,1001.59
2023-03-17T05:13:32.416Z,1001.52
2023-03-17T05:14:32.398Z,1001.49
2023-03-17T05:15:32.388Z,1001.50
2023-03-17T05:16:32.449Z,1001.49
2023-03-17T05:17:32.368Z,1001.43
2023-03-17T05:18:32.354Z,1001.48
2023-03-17T05:19:32.349Z,1001.52
2023-03-17T05:20:32.770Z,1001.54
2023-03-17T05:21:32.326Z,1001.57
2023-03-17T05:22:32.312Z,1001.56
2023-03-17T05:23:32.307Z,1001.53
2023-03-17T05:24:32.293Z,1001.55
2023-03-17T05:25:32.281Z,1001.52
2023-03-17T05:26:32.270Z,1001.59
2023-03-17T05:27:32.261Z,1001.57
2023-03-17T05:28:32.262Z,1001.56
2023-03-17T05:29:32.241Z,1001.61
2023-03-17T05:30:32.600Z,1001.58
2023-03-17T05:31:32.219Z,1001.50
2023-03-17T05:32:32.295Z,1001.55
2023-03-17T05:33:32.199Z,1001.51
2023-03-17T05:34:32.198Z,1001.50
2023-03-17T05:35:32.194Z,1001.50
2023-03-17T05:37:32.159Z,1001.43
2023-03-17T05:38:32.142Z,1001.46
2023-03-17T05:40:32.392Z,1001.48
2023-03-17T05:41:32.114Z,1001.45
2023-03-17T05:42:32.109Z,1001.48
2023-03-17T05:45:32.064Z,1001.51
2023-03-17T05:46:32.184Z,1001.52
2023-03-17T05:47:32.048Z,1001.53
2023-03-17T05:48:32.032Z,1001.53
2023-03-17T05:49:32.024Z,1001.52
2023-03-17T05:50:32.295Z,1001.55
2023-03-17T05:51:32.014Z,1001.57
2023-03-17T05:52:32.007Z,1001.59
2023-03-17T05:53:31.979Z,1001.59
2023-03-17T05:54:31.965Z,1001.60
2023-03-17T05:55:31.956Z,1001.57
2023-03-17T05:57:31.939Z,1001.55
2023-03-17T05:58:31.926Z,1001.54
2023-03-17T05:59:31.921Z,1001.52
2023-03-17T06:00:32.354Z,1001.50
2023-03-17T06:01:31.893Z,1001.51
2023-03-17T06:02:31.942Z,1001.53
2023-03-17T06:03:32.003Z,1001.49
2023-03-17T06:04:31.860Z,1001.52
2023-03-17T06:05:31.846Z,1001.50
2023-03-17T06:06:31.834Z,1001.46
2023-03-17T06:07:44.574Z,1001.46
2023-03-17T06:08:31.838Z,1001.49
2023-03-17T06:10:32.167Z,1001.46
2023-03-17T06:11:31.782Z,1001.48
2023-03-17T06:12:31.769Z,1001.43
2023-03-17T06:13:31.774Z,1001.42
2023-03-17T06:14:31.747Z,1001.38
2023-03-17T06:15:32.076Z,1001.36
2023-03-17T06:16:31.732Z,1001.36
2023-03-17T06:17:31.721Z,1001.35
2023-03-17T06:18:31.703Z,1001.31
2023-03-17T06:19:31.695Z,1001.30
2023-03-17T06:20:31.683Z,1001.32
2023-03-17T06:22:31.659Z,1001.31
2023-03-17T06:23:31.659Z,1001.36
2023-03-17T06:24:31.664Z,1001.33
2023-03-17T06:25:32.098Z,1001.34
2023-03-17T06:26:31.616Z,1001.34
2023-03-17T06:28:31.594Z,1001.37
2023-03-17T06:29:31.582Z,1001.40
2023-03-17T06:31:31.587Z,1001.32
2023-03-17T06:32:31.591Z,1001.34
2023-03-17T06:33:31.541Z,1001.28
2023-03-17T06:34:31.534Z,1001.29
2023-03-17T06:35:31.971Z,1001.30
2023-03-17T06:36:31.504Z,1001.33
2023-03-17T06:37:31.496Z,1001.32
2023-03-17T06:38:31.481Z,1001.32
2023-03-17T06:39:31.473Z,1001.31
2023-03-17T06:40:31.479Z,1001.29
2023-03-17T06:41:31.450Z,1001.32
2023-03-17T06:42:31.456Z,1001.29
2023-03-17T06:43:31.438Z,1001.24
2023-03-17T06:44:31.417Z,1001.32
2023-03-17T06:45:31.720Z,1001.30
2023-03-17T06:47:31.407Z,1001.33
2023-03-17T06:48:31.381Z,1001.33
2023-03-17T06:49:31.363Z,1001.32
2023-03-17T06:50:31.351Z,1001.37
2023-03-17T06:51:31.342Z,1001.39
2023-03-17T06:52:31.329Z,1001.41
2023-03-17T06:53:31.321Z,1001.41
2023-03-17T06:54:31.308Z,1001.40
2023-03-17T06:55:31.464Z,1001.41
2023-03-17T06:56:31.304Z,1001.39
2023-03-17T06:58:31.277Z,1001.38
2023-03-17T06:59:31.259Z,1001.41
2023-03-17T07:02:31.221Z,1001.44
2023-03-17T07:03:31.211Z,1001.47
2023-03-17T07:04:31.298Z,1001.45
2023-03-17T07:05:31.439Z,1001.51
2023-03-17T07:06:31.188Z,1001.47
2023-03-17T07:07:31.173Z,1001.49
2023-03-17T07:08:31.205Z,1001.48
2023-03-17T07:09:31.152Z,1001.46
2023-03-17T07:10:31.231Z,1001.46
2023-03-17T07:11:31.143Z,1001.43
2023-03-17T07:12:31.156Z,1001.40
2023-03-17T07:13:31.100Z,1001.40
2023-03-17T07:14:31.097Z,1001.40
2023-03-17T07:15:31.324Z,1001.43
2023-03-17T07:16:31.137Z,1001.45
2023-03-17T07:17:31.064Z,1001.35
2023-03-17T07:18:31.046Z,1001.39
2023-03-17T07:19:31.040Z,1001.41
2023-03-17T07:20:31.065Z,1001.39
2023-03-17T07:22:31.000Z,1001.40
2023-03-17T07:24:30.982Z,1001.45
2023-03-17T07:25:31.349Z,1001.37
2023-03-17T07:27:30.947Z,1001.31
2023-03-17T07:28:30.965Z,1001.32
2023-03-17T07:35:31.089Z,1001.37
2023-03-17T07:36:30.846Z,1001.42
2023-03-17T07:41:30.812Z,1001.44
2023-03-17T07:47:30.744Z,1001.50
2023-03-17T07:48:30.717Z,1001.49
2023-03-17T07:49:40.794Z,1001.49
2023-03-17T07:50:30.691Z,1001.39
2023-03-17T07:51:30.694Z,1001.38
2023-03-17T07:52:30.675Z,1001.38
2023-03-17T07:53:30.660Z,1001.38
2023-03-17T07:54:30.646Z,1001.38
2023-03-17T07:55:30.871Z,1001.37
2023-03-17T07:56:30.647Z,1001.32
2023-03-17T07:57:30.651Z,1001.36
2023-03-17T07:58:30.601Z,1001.37
2023-03-17T07:59:30.594Z,1001.38
2023-03-17T08:00:31.030Z,1001.35
2023-03-17T08:01:30.608Z,1001.38
2023-03-17T08:02:30.565Z,1001.38
2023-03-17T08:07:30.513Z,1001.16
2023-03-17T08:08:30.490Z,1001.20
2023-03-17T08:09:30.520Z,1001.13
2023-03-17T08:10:30.918Z,1001.15
2023-03-17T08:11:30.461Z,1001.14
2023-03-17T08:12:30.448Z,1001.14
2023-03-17T08:13:30.440Z,1001.15
2023-03-17T08:14:30.455Z,1001.14
2023-03-17T08:15:30.420Z,1001.08
2023-03-17T08:16:30.505Z,1001.05
2023-03-17T08:17:30.427Z,1001.05
2023-03-17T08:18:30.422Z,1001.06
2023-03-17T08:19:30.417Z,1001.11
2023-03-17T08:22:30.346Z,1001.20
2023-03-17T08:23:30.332Z,1001.15
2023-03-17T08:24:30.319Z,1001.21
2023-03-17T08:25:30.311Z,1001.23
2023-03-17T08:27:32.537Z,1001.24
2023-03-17T08:28:30.365Z,1001.25
2023-03-17T08:29:30.266Z,1001.26
2023-03-17T08:30:33.254Z,1001.31
2023-03-17T08:31:30.385Z,1001.34
2023-03-17T08:32:30.366Z,1001.34
2023-03-17T08:33:30.223Z,1001.31
2023-03-17T08:40:30.612Z,1001.24
2023-03-17T08:42:30.122Z,1001.28
2023-03-17T08:43:30.116Z,1001.31
2023-03-17T08:44:30.103Z,1001.36
2023-03-17T08:45:30.341Z,1001.34
2023-03-17T08:46:30.146Z,1001.33
2023-03-17T08:47:30.068Z,1001.28
2023-03-17T08:48:30.077Z,1001.34
2023-03-17T08:49:30.048Z,1001.19
2023-03-17T08:50:30.331Z,1001.31
2023-03-17T08:51:30.023Z,1001.29
2023-03-17T08:52:30.016Z,1001.36
2023-03-17T08:54:29.993Z,1001.22
2023-03-17T08:59:29.940Z,1001.31
2023-03-17T09:01:29.960Z,1001.26
2023-03-17T09:02:29.953Z,1001.29
2023-03-17T09:03:29.894Z,1001.32
2023-03-17T09:04:29.915Z,1001.37
2023-03-17T09:05:30.314Z,1001.36
2023-03-17T09:06:29.868Z,1001.35
2023-03-17T09:07:29.886Z,1001.38
2023-03-17T09:09:29.834Z,1001.33
2023-03-17T09:10:30.391Z,1001.31
2023-03-17T09:11:29.831Z,1001.30
2023-03-17T09:12:29.798Z,1001.34
2023-03-17T09:13:29.785Z,1001.31
2023-03-17T09:14:35.277Z,1001.27
2023-03-17T09:15:30.013Z,1001.27
2023-03-17T09:16:29.861Z,1001.32
2023-03-17T09:17:29.742Z,1001.26
2023-03-17T09:18:29.731Z,1001.25
2023-03-17T09:19:29.723Z,1001.20
2023-03-17T09:20:30.174Z,1001.23
2023-03-17T09:21:29.695Z,1001.25
2023-03-17T09:22:29.731Z,1001.23
2023-03-17T09:23:29.699Z,1001.28
2023-03-17T09:24:29.710Z,1001.25
2023-03-17T09:26:29.686Z,1001.24
2023-03-17T09:27:29.641Z,1001.21
2023-03-17T09:28:29.629Z,1001.26
2023-03-17T09:29:29.614Z,1001.30
2023-03-17T09:31:29.652Z,1001.30
2023-03-17T09:32:29.614Z,1001.29
2023-03-17T09:33:29.565Z,1001.30
2023-03-17T09:34:29.555Z,1001.24
2023-03-17T09:35:29.561Z,1001.21
2023-03-17T09:36:29.555Z,1001.21
2023-03-17T09:37:29.523Z,1001.19
2023-03-17T09:38:29.512Z,1001.23
2023-03-17T09:39:29.499Z,1001.25
2023-03-17T09:40:30.127Z,1001.31
2023-03-17T09:41:29.475Z,1001.24
2023-03-17T09:42:29.467Z,1001.30
2023-03-17T09:43:29.454Z,1001.25
2023-03-17T09:44:29.465Z,1001.24
2023-03-17T09:45:29.431Z,1001.25
2023-03-17T09:46:29.459Z,1001.23
2023-03-17T09:47:29.410Z,1001.20
2023-03-17T09:48:29.404Z,1001.25
2023-03-17T09:49:29.389Z,1001.28
2023-03-17T09:50:29.753Z,1001.30
2023-03-17T09:51:29.373Z,1001.27
2023-03-17T09:52:29.381Z,1001.26
2023-03-17T09:53:29.345Z,1001.25
2023-03-17T09:54:29.348Z,1001.26
2023-03-17T09:55:29.834Z,1001.23
2023-03-17T09:56:29.317Z,1001.32
2023-03-17T09:57:29.317Z,1001.16
2023-03-17T09:58:29.292Z,1001.14
2023-03-17T09:59:29.281Z,1001.09
2023-03-17T10:00:29.398Z,1001.06
2023-03-17T10:01:29.299Z,1001.10
2023-03-17T10:02:29.256Z,1001.05
2023-03-17T10:03:29.235Z,1001.08
2023-03-17T10:04:29.228Z,1001.13
2023-03-17T10:05:29.727Z,1001.14
2023-03-17T10:06:29.208Z,1001.19
2023-03-17T10:07:29.193Z,1001.18
2023-03-17T10:08:31.899Z,1001.14
2023-03-17T10:09:29.197Z,1001.18
2023-03-17T10:13:29.135Z,1001.13
2023-03-17T10:14:29.126Z,1001.14
2023-03-17T10:15:29.118Z,1001.12
2023-03-17T10:16:29.162Z,1001.14
2023-03-17T10:17:29.122Z,1001.11
2023-03-17T10:18:29.084Z,1001.09
2023-03-17T10:19:29.078Z,1001.13
2023-03-17T10:20:29.079Z,1001.12
2023-03-17T10:21:29.044Z,1001.08
2023-03-17T10:22:29.033Z,1001.09
2023-03-17T10:23:29.027Z,1001.09
2023-03-17T10:26:29.006Z,1001.11
2023-03-17T10:27:28.979Z,1001.12
2023-03-17T10:28:28.982Z,1001.16
2023-03-17T10:34:28.902Z,1001.07
2023-03-17T10:35:29.340Z,1001.10
2023-03-17T10:36:28.883Z,1001.17
2023-03-17T10:37:28.874Z,1001.12
2023-03-17T10:38:28.867Z,1001.11
2023-03-17T10:40:29.273Z,1001.12
2023-03-17T10:41:28.828Z,1001.10
2023-03-17T10:42:28.824Z,1001.07
2023-03-17T10:43:28.808Z,1001.08
2023-03-17T10:45:28.797Z,1001.09
2023-03-17T10:46:28.842Z,1001.02
2023-03-17T10:47:28.780Z,1001.01
2023-03-17T10:48:28.816Z,1001.06
2023-03-17T10:49:28.741Z,1001.05
2023-03-17T10:51:28.722Z,1000.96
2023-03-17T10:52:28.716Z,1001.01
2023-03-17T10:53:28.717Z,1001.00
2023-03-17T10:54:28.705Z,1000.98
2023-03-17T10:55:28.681Z,1000.98
2023-03-17T10:56:28.703Z,1000.95
2023-03-17T10:57:28.663Z,1000.92
2023-03-17T10:58:28.657Z,1000.83
2023-03-17T10:59:28.711Z,1000.85
2023-03-17T11:00:28.888Z,1000.91
2023-03-17T11:01:28.655Z,1000.87
2023-03-17T11:02:28.609Z,1000.84
2023-03-17T11:03:28.615Z,1000.86
2023-03-17T11:05:28.569Z,1000.85
2023-03-17T11:06:28.577Z,1000.87
2023-03-17T11:08:28.540Z,1000.77
2023-03-17T11:09:28.529Z,1000.85
2023-03-17T11:10:28.866Z,1000.85
2023-03-17T11:11:28.510Z,1000.86
2023-03-17T11:12:28.541Z,1000.75
2023-03-17T11:13:28.486Z,1000.76
2023-03-17T11:16:28.478Z,1000.82
2023-03-17T11:17:28.443Z,1000.88
2023-03-17T11:18:28.435Z,1000.85
2023-03-17T11:24:28.371Z,1000.84
2023-03-17T11:25:28.358Z,1000.82
2023-03-17T11:27:28.339Z,1000.84
2023-03-17T11:28:28.356Z,1000.77
2023-03-17T11:29:28.315Z,1000.79
2023-03-17T11:30:28.348Z,1000.83
2023-03-17T11:31:28.321Z,1000.80
2023-03-17T11:32:28.386Z,1000.81
2023-03-17T11:33:28.276Z,1000.80
2023-03-17T11:34:28.276Z,1000.79
2023-03-17T11:35:28.254Z,1000.80
2023-03-17T11:36:28.242Z,1000.77
2023-03-17T11:37:28.230Z,1000.86
2023-03-17T11:38:28.227Z,1000.77
2023-03-17T11:39:28.208Z,1000.78
2023-03-17T11:40:28.197Z,1000.68
2023-03-17T11:42:28.177Z,1000.65
2023-03-17T11:43:28.205Z,1000.72
2023-03-17T11:44:28.178Z,1000.64
2023-03-17T11:45:28.146Z,1000.65
2023-03-17T11:46:28.165Z,1000.62
2023-03-17T11:47:28.118Z,1000.68
2023-03-17T11:48:28.153Z,1000.65
2023-03-17T11:49:28.102Z,1000.60
2023-03-17T11:50:28.086Z,1000.66
2023-03-17T11:51:28.075Z,1000.67
2023-03-17T11:52:28.075Z,1000.70
2023-03-17T11:53:28.061Z,1000.65
2023-03-17T11:54:28.056Z,1000.65
2023-03-17T11:55:28.034Z,1000.68
2023-03-17T11:56:28.023Z,1000.68
2023-03-17T11:57:28.022Z,1000.67
2023-03-17T11:58:28.004Z,1000.71
2023-03-17T11:59:27.996Z,1000.73
2023-03-17T12:00:27.996Z,1000.70
2023-03-17T12:01:27.967Z,1000.72
2023-03-17T12:02:27.956Z,1000.69
2023-03-17T12:03:28.029Z,1000.65
2023-03-17T12:04:28.002Z,1000.65
2023-03-17T12:05:27.923Z,1000.66
2023-03-17T12:07:27.899Z,1000.61
2023-03-17T12:09:27.877Z,1000.56
2023-03-17T12:10:27.870Z,1000.56
2023-03-17T12:11:27.854Z,1000.61
2023-03-17T12:12:27.847Z,1000.66
2023-03-17T12:13:27.836Z,1000.65
2023-03-17T12:14:27.823Z,1000.57
2023-03-17T12:15:27.843Z,1000.63
2023-03-17T12:16:27.822Z,1000.60
2023-03-17T12:18:27.785Z,1000.58
2023-03-17T12:19:27.768Z,1000.66
2023-03-17T12:20:27.764Z,1000.64
2023-03-17T12:21:27.745Z,1000.64
2023-03-17T12:22:27.736Z,1000.60
2023-03-17T12:23:27.723Z,1000.60
2023-03-17T12:24:27.714Z,1000.54
2023-03-17T12:25:27.731Z,1000.55
2023-03-17T12:26:27.693Z,1000.52
2023-03-17T12:27:27.679Z,1000.54
2023-03-17T12:28:27.671Z,1000.53
2023-03-17T12:29:27.659Z,1000.49
2023-03-17T12:30:27.650Z,1000.49
2023-03-17T12:33:27.625Z,1000.51
2023-03-17T12:34:27.605Z,1000.50
2023-03-17T12:35:27.598Z,1000.43
2023-03-17T12:37:27.594Z,1000.40
2023-03-17T12:38:27.561Z,1000.35
2023-03-17T12:39:27.550Z,1000.32
2023-03-17T12:40:27.590Z,1000.32
2023-03-17T12:41:27.529Z,1000.33
2023-03-17T12:42:27.519Z,1000.32
2023-03-17T12:43:27.507Z,1000.30
2023-03-17T12:44:27.501Z,1000.37
2023-03-17T12:45:27.499Z,1000.38
2023-03-17T12:46:27.574Z,1000.34
2023-03-17T12:47:27.464Z,1000.31
2023-03-17T12:48:27.472Z,1000.35
2023-03-17T12:49:27.445Z,1000.33
2023-03-17T12:50:27.429Z,1000.31
2023-03-17T12:55:27.384Z,1000.21
2023-03-17T12:56:27.365Z,1000.19
2023-03-17T12:57:27.353Z,1000.18
2023-03-17T12:58:27.344Z,1000.23
2023-03-17T12:59:27.334Z,1000.17
2023-03-17T13:00:27.323Z,1000.13
2023-03-17T13:01:27.366Z,1000.10
2023-03-17T13:02:27.299Z,1000.09
2023-03-17T13:03:27.349Z,1000.12
2023-03-17T13:04:27.412Z,1000.16
2023-03-17T13:05:27.266Z,1000.11
2023-03-17T13:06:27.254Z,1000.12
2023-03-17T13:11:27.250Z,1000.12
2023-03-17T13:13:27.179Z,1000.06
2023-03-17T13:14:27.190Z,1000.08
2023-03-17T13:15:27.157Z,1000.09
2023-03-17T13:16:27.194Z,1000.06
2023-03-17T13:17:27.138Z,1000.02
2023-03-17T13:18:27.130Z,1000.04
2023-03-17T13:19:27.123Z,1000.04
2023-03-17T13:20:27.124Z,999.95
2023-03-17T13:21:27.090Z,999.93
2023-03-17T13:22:27.079Z,999.97
2023-03-17T13:23:27.067Z,999.96
2023-03-17T13:24:27.056Z,999.97
2023-03-17T13:25:27.045Z,999.93
2023-03-17T13:26:27.033Z,999.95
2023-03-17T13:27:27.023Z,999.97
2023-03-17T13:28:27.011Z,999.96
2023-03-17T13:29:27.008Z,1000.00
2023-03-17T13:30:27.082Z,999.92
2023-03-17T13:31:27.085Z,999.91
2023-03-17T13:32:27.066Z,999.87
2023-03-17T13:33:26.959Z,999.90
2023-03-17T13:34:26.946Z,999.93
2023-03-17T13:35:26.946Z,999.90
2023-03-17T13:36:26.944Z,999.91
2023-03-17T13:37:26.916Z,999.91
2023-03-17T13:38:26.905Z,999.96
2023-03-17T13:39:26.910Z,999.95
2023-03-17T13:40:26.888Z,999.94
2023-03-17T13:41:26.892Z,999.93
2023-03-17T13:42:26.862Z,999.97
2023-03-17T13:43:26.852Z,999.99
2023-03-17T13:44:26.839Z,1000.00
2023-03-17T13:45:26.836Z,999.94
2023-03-17T13:46:26.906Z,999.95
2023-03-17T13:47:26.809Z,999.89
2023-03-17T13:48:26.797Z,999.84
2023-03-17T13:49:26.821Z,999.87
2023-03-17T13:50:26.777Z,999.84
2023-03-17T13:53:26.744Z,999.78
2023-03-17T13:54:26.742Z,999.79
2023-03-17T13:55:26.827Z,999.80
2023-03-17T13:56:26.709Z,999.79
2023-03-17T13:57:26.727Z,999.76
2023-03-17T13:59:26.679Z,999.77
2023-03-17T14:00:26.713Z,999.83
2023-03-17T14:01:26.661Z,999.82
2023-03-17T14:03:26.712Z,999.81
2023-03-17T14:04:26.630Z,999.83
2023-03-17T14:05:26.613Z,999.82
2023-03-17T14:06:26.601Z,999.75
2023-03-17T14:07:26.592Z,999.83
2023-03-17T14:08:26.601Z,999.80
2023-03-17T14:09:26.572Z,999.82
2023-03-17T14:10:26.556Z,999.73
2023-03-17T14:11:26.552Z,999.81
2023-03-17T14:12:26.538Z,999.74
2023-03-17T14:13:26.527Z,999.76
2023-03-17T14:14:32.845Z,999.79
2023-03-17T14:15:26.507Z,999.76
2023-03-17T14:18:26.475Z,999.77
2023-03-17T14:19:26.466Z,999.82
2023-03-17T14:21:26.450Z,999.78
2023-03-17T14:23:26.422Z,999.79
2023-03-17T14:24:26.445Z,999.83
2023-03-17T14:25:26.405Z,999.81
2023-03-17T14:26:26.390Z,999.83
2023-03-17T14:27:26.380Z,999.83
2023-03-17T14:28:26.360Z,999.80
2023-03-17T14:31:26.395Z,999.81
2023-03-17T14:32:26.605Z,999.77
2023-03-17T14:33:26.310Z,999.79
2023-03-17T14:34:26.297Z,999.78
2023-03-17T14:35:26.285Z,999.81
2023-03-17T14:36:26.270Z,999.78
2023-03-17T14:37:26.263Z,999.80
2023-03-17T14:38:26.257Z,999.80
2023-03-17T14:39:26.243Z,999.77
2023-03-17T14:41:26.222Z,999.80
2023-03-17T14:42:26.207Z,999.85
2023-03-17T14:43:26.210Z,999.82
2023-03-17T14:44:26.186Z,999.78
2023-03-17T14:45:26.175Z,999.78
2023-03-17T14:46:26.258Z,999.75
2023-03-17T14:47:26.153Z,999.79
2023-03-17T14:48:26.143Z,999.73
2023-03-17T14:49:26.155Z,999.69
2023-03-17T14:50:26.120Z,999.64
2023-03-17T14:51:26.116Z,999.64
2023-03-17T14:52:26.098Z,999.69
2023-03-17T14:53:26.090Z,999.63
2023-03-17T14:54:26.075Z,999.60
2023-03-17T14:55:26.068Z,999.67
2023-03-17T14:56:26.077Z,999.61
2023-03-17T14:57:26.049Z,999.67
2023-03-17T14:58:26.030Z,999.67
2023-03-17T15:00:26.013Z,999.65